createdAt,value
2023-03-03T00:00:56.045Z,0.41
2023-03-03T00:03:25.356Z,0.28
2023-03-03T00:05:52.783Z,0.22
2023-03-03T00:08:20.734Z,0.10
2023-03-03T00:10:47.744Z,0.11
2023-03-03T00:13:20.288Z,0.13
2023-03-03T00:15:47.940Z,0.13
2023-03-03T00:18:41.513Z,0.04
2023-03-03T00:21:23.296Z,0.14
2023-03-03T00:23:50.720Z,0.12
2023-03-03T00:26:31.492Z,0.05
2023-03-03T00:28:58.273Z,-0.07
2023-03-03T00:31:34.310Z,0.11
2023-03-03T00:34:25.799Z,0.08
2023-03-03T00:36:56.243Z,0.10
2023-03-03T00:39:36.684Z,0.06
2023-03-03T00:42:12.657Z,0.00
2023-03-03T00:44:44.537Z,0.04
2023-03-03T00:47:31.065Z,0.11
2023-03-03T00:50:07.093Z,0.10
2023-03-03T00:52:36.527Z,0.05
2023-03-03T00:55:04.515Z,0.04
2023-03-03T00:57:31.478Z,0.03
2023-03-03T00:59:58.161Z,0.05
2023-03-03T01:02:25.022Z,-0.02
2023-03-03T01:04:53.538Z,-0.04
2023-03-03T01:07:20.210Z,-0.16
2023-03-03T01:09:46.861Z,-0.10
2023-03-03T01:12:13.827Z,-0.24
2023-03-03T01:14:40.875Z,-0.31
2023-03-03T01:17:07.997Z,-0.29
2023-03-03T01:19:34.749Z,-0.37
2023-03-03T01:22:01.811Z,-0.40
2023-03-03T01:24:28.630Z,-0.42
2023-03-03T01:26:55.362Z,-0.47
2023-03-03T01:29:22.115Z,-0.46
2023-03-03T01:31:48.835Z,-0.40
2023-03-03T01:34:15.621Z,-0.38
2023-03-03T01:36:42.476Z,-0.37
2023-03-03T01:39:11.191Z,-0.44
2023-03-03T01:41:37.974Z,-0.50
2023-03-03T01:44:04.879Z,-0.47
2023-03-03T01:46:37.909Z,-0.50
2023-03-03T01:49:33.915Z,-0.54
2023-03-03T01:52:03.992Z,-0.53
2023-03-03T01:54:35.724Z,-0.55
2023-03-03T01:57:05.684Z,-0.56
2023-03-03T01:59:36.037Z,-0.62
2023-03-03T02:02:03.842Z,-0.60
2023-03-03T02:04:30.726Z,-0.67
2023-03-03T02:07:07.040Z,-0.83
2023-03-03T02:09:56.315Z,-0.66
2023-03-03T02:12:28.890Z,-0.61
2023-03-03T02:14:55.655Z,-0.55
2023-03-03T02:17:22.381Z,-0.52
2023-03-03T02:20:01.691Z,-0.50
2023-03-03T02:22:49.442Z,-0.57
2023-03-03T02:25:27.611Z,-0.55
2023-03-03T02:27:54.338Z,-0.63
2023-03-03T02:30:24.205Z,-0.67
2023-03-03T02:32:50.931Z,-0.71
2023-03-03T02:35:38.885Z,-0.69
2023-03-03T02:38:27.833Z,-0.72
2023-03-03T02:41:09.862Z,-0.70
2023-03-03T02:44:01.439Z,-0.72
2023-03-03T02:46:31.995Z,-0.72
2023-03-03T02:48:58.797Z,-0.66
2023-03-03T02:51:25.564Z,-0.73
2023-03-03T02:53:52.592Z,-0.94
2023-03-03T02:56:19.386Z,-0.76
2023-03-03T02:58:46.120Z,-0.73
2023-03-03T03:01:12.921Z,-0.71
2023-03-03T03:03:39.792Z,-0.60
2023-03-03T03:06:06.637Z,-0.57
2023-03-03T03:08:33.361Z,-0.51
2023-03-03T03:11:00.131Z,-0.56
2023-03-03T03:13:27.383Z,-0.39
2023-03-03T03:15:54.416Z,-0.42
2023-03-03T03:18:21.145Z,-0.32
2023-03-03T03:20:48.584Z,-0.32
2023-03-03T03:23:15.903Z,-0.24
2023-03-03T03:25:46.643Z,-0.18
2023-03-03T03:28:14.146Z,-0.23
2023-03-03T03:30:41.164Z,-0.46
2023-03-03T03:33:08.305Z,-0.37
2023-03-03T03:35:35.711Z,-0.27
2023-03-03T03:38:02.958Z,-0.22
2023-03-03T03:40:29.799Z,-0.32
2023-03-03T03:42:56.844Z,-0.31
2023-03-03T03:45:23.656Z,-0.28
2023-03-03T03:47:50.427Z,-0.33
2023-03-03T03:50:17.171Z,-0.31
2023-03-03T03:52:43.925Z,-0.37
2023-03-03T03:55:10.851Z,-0.22
2023-03-03T03:57:37.689Z,-0.12
2023-03-03T04:00:08.796Z,-0.06
2023-03-03T04:02:36.288Z,0.12
2023-03-03T04:05:03.606Z,-0.10
2023-03-03T04:07:30.486Z,-0.08
2023-03-03T04:09:57.223Z,-0.09
2023-03-03T04:12:23.900Z,-0.27
2023-03-03T04:14:50.648Z,-0.40
2023-03-03T04:17:18.818Z,-0.45
2023-03-03T04:19:45.796Z,-0.44
2023-03-03T04:22:13.840Z,-0.55
2023-03-03T04:24:41.383Z,-0.53
2023-03-03T04:27:09.585Z,-0.47
2023-03-03T04:29:36.398Z,-0.38
2023-03-03T04:32:03.205Z,-0.36
2023-03-03T04:34:30.041Z,-0.35
2023-03-03T04:36:56.777Z,-0.37
2023-03-03T04:39:23.506Z,-0.42
2023-03-03T04:41:50.376Z,-0.27
2023-03-03T04:44:17.078Z,-0.29
2023-03-03T04:46:43.774Z,-0.42
2023-03-03T04:49:12.499Z,-0.48
2023-03-03T04:51:39.444Z,-0.47
2023-03-03T04:54:06.316Z,-0.33
2023-03-03T04:56:33.139Z,-0.21
2023-03-03T04:58:59.857Z,-0.14
2023-03-03T05:01:26.696Z,-0.21
2023-03-03T05:03:53.443Z,-0.21
2023-03-03T05:06:20.269Z,-0.14
2023-03-03T05:08:47.002Z,-0.15
2023-03-03T05:11:14.162Z,-0.12
2023-03-03T05:13:41.271Z,-0.06
2023-03-03T05:16:08.722Z,-0.07
2023-03-03T05:18:35.517Z,-0.10
2023-03-03T05:21:02.178Z,-0.20
2023-03-03T05:23:28.820Z,-0.21
2023-03-03T05:25:55.576Z,-0.23
2023-03-03T05:28:22.223Z,-0.24
2023-03-03T05:30:49.179Z,-0.14
2023-03-03T05:33:17.086Z,-0.12
2023-03-03T05:35:44.238Z,-0.19
2023-03-03T05:38:11.425Z,-0.11
2023-03-03T05:40:38.549Z,-0.06
2023-03-03T05:43:05.446Z,0.00
2023-03-03T05:45:32.437Z,0.00
2023-03-03T05:47:59.120Z,-0.02
2023-03-03T05:50:25.848Z,-0.03
2023-03-03T05:52:53.101Z,0.00
2023-03-03T05:55:20.300Z,-0.02
2023-03-03T05:57:47.004Z,0.09
2023-03-03T06:00:14.944Z,0.06
2023-03-03T06:02:42.442Z,0.06
2023-03-03T06:05:09.926Z,0.15
2023-03-03T06:07:36.714Z,0.20
2023-03-03T06:10:03.746Z,0.26
2023-03-03T06:12:30.623Z,0.23
2023-03-03T06:14:57.354Z,0.27
2023-03-03T06:17:24.352Z,0.30
2023-03-03T06:19:50.963Z,0.26
2023-03-03T06:22:17.746Z,0.28
2023-03-03T06:24:44.603Z,0.32
2023-03-03T06:27:11.354Z,0.21
2023-03-03T06:29:38.123Z,0.19
2023-03-03T06:32:05.280Z,0.37
2023-03-03T06:34:32.131Z,0.43
2023-03-03T06:36:58.906Z,0.53
2023-03-03T06:39:25.672Z,0.51
2023-03-03T06:41:52.461Z,0.50
2023-03-03T06:44:19.232Z,0.47
2023-03-03T06:46:45.944Z,0.35
2023-03-03T06:49:12.750Z,0.33
2023-03-03T06:51:40.086Z,0.40
2023-03-03T06:54:22.470Z,0.50
2023-03-03T06:56:52.163Z,0.52
2023-03-03T06:59:20.891Z,0.50
2023-03-03T07:01:49.289Z,0.66
2023-03-03T07:04:16.160Z,0.80
2023-03-03T07:06:42.955Z,0.88
2023-03-03T07:09:18.529Z,0.93
2023-03-03T07:11:46.639Z,0.93
2023-03-03T07:14:17.227Z,0.85
2023-03-03T07:16:44.117Z,0.86
2023-03-03T07:19:33.564Z,0.88
2023-03-03T07:22:14.230Z,0.82
2023-03-03T07:24:42.487Z,0.87
2023-03-03T07:27:18.411Z,1.04
2023-03-03T07:29:48.532Z,1.02
2023-03-03T07:32:40.964Z,1.01
2023-03-03T07:35:38.847Z,1.01
2023-03-03T07:38:18.245Z,1.06
2023-03-03T07:40:50.897Z,1.15
2023-03-03T07:43:23.666Z,1.16
2023-03-03T07:45:51.365Z,1.32
2023-03-03T07:48:40.201Z,1.39
2023-03-03T07:51:16.557Z,1.38
2023-03-03T07:53:43.340Z,1.45
2023-03-03T07:56:31.176Z,1.41
2023-03-03T07:58:58.661Z,1.48
2023-03-03T08:01:42.788Z,1.43
2023-03-03T08:04:23.326Z,1.48
2023-03-03T08:06:58.657Z,1.64
2023-03-03T08:09:27.895Z,1.95
2023-03-03T08:12:06.706Z,1.73
2023-03-03T08:14:38.103Z,1.62
2023-03-03T08:17:15.159Z,1.60
2023-03-03T08:19:41.877Z,1.65
2023-03-03T08:22:41.736Z,1.72
2023-03-03T08:25:08.696Z,1.75
2023-03-03T08:27:35.411Z,1.83
2023-03-03T08:30:02.148Z,1.85
2023-03-03T08:32:29.051Z,1.79
2023-03-03T08:34:55.922Z,1.93
2023-03-03T08:37:22.640Z,2.08
2023-03-03T08:39:49.612Z,2.06
2023-03-03T08:42:16.448Z,2.11
2023-03-03T08:44:43.291Z,2.32
2023-03-03T08:47:09.990Z,2.32
2023-03-03T08:49:36.785Z,2.55
2023-03-03T08:52:04.061Z,2.64
2023-03-03T08:54:30.803Z,2.53
2023-03-03T08:56:57.634Z,2.52
2023-03-03T08:59:24.383Z,2.61
2023-03-03T09:01:51.157Z,2.61
2023-03-03T09:04:17.944Z,2.88
2023-03-03T09:06:44.628Z,2.68
2023-03-03T09:09:11.362Z,2.81
2023-03-03T09:11:38.172Z,3.05
2023-03-03T09:14:12.583Z,3.03
2023-03-03T09:16:41.604Z,2.99
2023-03-03T09:19:17.480Z,3.15
2023-03-03T09:21:44.211Z,3.25
2023-03-03T09:24:29.313Z,3.47
2023-03-03T09:26:59.060Z,3.32
2023-03-03T09:29:30.648Z,3.33
2023-03-03T09:32:21.705Z,3.57
2023-03-03T09:34:48.500Z,3.54
2023-03-03T09:37:23.304Z,3.69
2023-03-03T09:39:52.098Z,3.79
2023-03-03T09:42:43.220Z,3.61
2023-03-03T09:45:28.268Z,3.73
2023-03-03T09:48:04.629Z,3.84
2023-03-03T09:50:52.741Z,4.27
2023-03-03T09:53:28.689Z,4.32
2023-03-03T09:56:10.512Z,4.58
2023-03-03T09:58:57.329Z,4.66
2023-03-03T10:01:52.234Z,4.85
2023-03-03T10:04:42.778Z,4.73
2023-03-03T10:07:20.518Z,5.04
2023-03-03T10:10:08.190Z,5.14
2023-03-03T10:12:49.166Z,5.87
2023-03-03T10:15:53.140Z,5.98
2023-03-03T10:18:35.613Z,5.41
2023-03-03T10:21:05.990Z,5.94
2023-03-03T10:23:41.620Z,5.95
2023-03-03T10:26:44.887Z,6.00
2023-03-03T10:29:34.171Z,6.29
2023-03-03T10:32:39.622Z,6.29
2023-03-03T10:35:22.578Z,7.39
2023-03-03T10:38:14.826Z,7.52
2023-03-03T10:41:11.479Z,7.97
2023-03-03T10:44:14.725Z,8.40
2023-03-03T10:46:48.661Z,8.48
2023-03-03T10:49:28.778Z,8.23
2023-03-03T10:51:58.883Z,7.82
2023-03-03T10:54:40.478Z,7.85
2023-03-03T10:57:34.874Z,7.29
2023-03-03T11:00:48.262Z,7.52
2023-03-03T11:03:23.570Z,8.28
2023-03-03T11:06:02.390Z,8.88
2023-03-03T11:08:32.372Z,8.64
2023-03-03T11:11:17.199Z,8.47
2023-03-03T11:14:02.272Z,8.10
2023-03-03T11:17:01.529Z,8.51
2023-03-03T11:19:52.908Z,8.83
2023-03-03T11:22:38.736Z,8.84
2023-03-03T11:25:23.860Z,8.24
2023-03-03T11:27:59.673Z,8.10
2023-03-03T11:30:36.539Z,8.15
2023-03-03T11:33:18.693Z,7.83
2023-03-03T11:35:54.607Z,7.94
2023-03-03T11:38:36.273Z,7.75
2023-03-03T11:41:35.904Z,7.63
2023-03-03T11:44:10.260Z,7.61
2023-03-03T11:46:40.666Z,7.82
2023-03-03T11:49:15.849Z,7.72
2023-03-03T11:52:01.848Z,7.92
2023-03-03T11:55:00.671Z,8.00
2023-03-03T11:57:35.379Z,7.90
2023-03-03T12:00:39.401Z,8.26
2023-03-03T12:03:18.013Z,8.40
2023-03-03T12:05:58.688Z,9.18
2023-03-03T12:08:43.734Z,9.55
2023-03-03T12:11:13.326Z,9.23
2023-03-03T12:13:49.680Z,8.96
2023-03-03T12:16:31.188Z,8.61
2023-03-03T12:19:13.967Z,8.61
2023-03-03T12:21:49.625Z,8.44
2023-03-03T12:24:16.303Z,8.40
2023-03-03T12:26:55.690Z,8.29
2023-03-03T12:29:30.341Z,8.63
2023-03-03T12:32:12.130Z,9.15
2023-03-03T12:34:49.346Z,8.89
2023-03-03T12:37:47.061Z,9.23
2023-03-03T12:40:14.986Z,10.04
2023-03-03T12:43:02.969Z,9.90
2023-03-03T12:45:57.107Z,10.11
2023-03-03T12:48:38.849Z,10.40
2023-03-03T12:51:30.473Z,10.00
2023-03-03T12:54:15.147Z,10.01
2023-03-03T12:56:45.761Z,10.21
2023-03-03T12:59:46.270Z,10.34
2023-03-03T13:02:22.782Z,10.37
2023-03-03T13:05:15.425Z,10.46
2023-03-03T13:08:06.457Z,10.59
2023-03-03T13:10:41.260Z,10.49
2023-03-03T13:13:19.249Z,10.57
2023-03-03T13:16:06.870Z,9.75
2023-03-03T13:18:56.194Z,9.68
2023-03-03T13:21:27.523Z,9.87
2023-03-03T13:24:21.764Z,9.70
2023-03-03T13:26:58.916Z,9.81
2023-03-03T13:29:40.124Z,9.86
2023-03-03T13:32:15.595Z,9.53
2023-03-03T13:35:00.523Z,9.82
2023-03-03T13:37:45.628Z,9.53
2023-03-03T13:40:27.244Z,9.57
2023-03-03T13:43:05.503Z,9.49
2023-03-03T13:45:58.067Z,10.28
2023-03-03T13:48:49.756Z,10.25
2023-03-03T13:51:32.245Z,9.92
2023-03-03T13:54:26.956Z,9.85
2023-03-03T13:57:15.032Z,9.57
2023-03-03T14:00:00.350Z,9.67
2023-03-03T14:02:38.992Z,9.38
2023-03-03T14:05:34.040Z,9.20
2023-03-03T14:08:05.362Z,9.12
2023-03-03T14:10:45.023Z,9.19
2023-03-03T14:13:13.413Z,9.22
2023-03-03T14:16:13.476Z,9.41
2023-03-03T14:19:04.496Z,9.23
2023-03-03T14:21:31.227Z,9.40
2023-03-03T14:24:01.036Z,9.30
2023-03-03T14:26:27.938Z,9.44
2023-03-03T14:29:15.531Z,9.38
2023-03-03T14:31:43.605Z,9.62
2023-03-03T14:34:36.587Z,9.42
2023-03-03T14:37:45.802Z,9.54
2023-03-03T14:40:17.194Z,9.40
2023-03-03T14:42:59.686Z,9.36
2023-03-03T14:45:38.128Z,9.45
2023-03-03T14:48:13.890Z,9.29
2023-03-03T14:50:43.150Z,9.35
2023-03-03T14:53:18.746Z,9.35
2023-03-03T14:55:48.257Z,9.27
2023-03-03T14:58:36.566Z,9.12
2023-03-03T15:01:15.668Z,9.13
2023-03-03T15:04:07.516Z,9.12
2023-03-03T15:06:46.938Z,9.32
2023-03-03T15:09:30.004Z,9.46
2023-03-03T15:11:58.857Z,9.67
2023-03-03T15:14:47.558Z,9.51
2023-03-03T15:17:35.480Z,9.26
2023-03-03T15:20:16.014Z,9.08
2023-03-03T15:22:48.737Z,9.03
2023-03-03T15:25:34.678Z,8.96
2023-03-03T15:28:44.206Z,8.94
2023-03-03T15:31:32.390Z,8.89
2023-03-03T15:34:33.067Z,8.79
2023-03-03T15:37:02.802Z,8.69
2023-03-03T15:39:52.593Z,8.75
2023-03-03T15:42:35.942Z,8.65
2023-03-03T15:45:24.982Z,8.64
2023-03-03T15:48:11.042Z,8.72
2023-03-03T15:50:40.767Z,8.80
2023-03-03T15:53:27.685Z,8.80
2023-03-03T15:56:31.048Z,8.71
2023-03-03T15:59:01.948Z,8.66
2023-03-03T16:02:02.212Z,8.57
2023-03-03T16:04:33.166Z,8.47
2023-03-03T16:07:08.372Z,8.48
2023-03-03T16:10:14.130Z,8.54
2023-03-03T16:13:18.442Z,8.41
2023-03-03T16:16:12.514Z,8.30
2023-03-03T16:19:01.053Z,8.18
2023-03-03T16:22:04.178Z,8.14
2023-03-03T16:24:52.168Z,8.02
2023-03-03T16:27:41.093Z,7.87
2023-03-03T16:30:26.946Z,7.79
2023-03-03T16:32:58.544Z,7.57
2023-03-03T16:35:29.099Z,7.25
2023-03-03T16:38:02.243Z,7.04
2023-03-03T16:40:45.275Z,6.84
2023-03-03T16:43:14.884Z,6.55
2023-03-03T16:45:42.054Z,6.56
2023-03-03T16:48:35.459Z,6.53
2023-03-03T16:51:27.535Z,6.22
2023-03-03T16:54:07.326Z,5.95
2023-03-03T16:57:22.048Z,5.84
2023-03-03T17:00:06.607Z,5.77
2023-03-03T17:02:38.381Z,5.65
2023-03-03T17:05:20.690Z,5.51
2023-03-03T17:08:02.571Z,5.41
2023-03-03T17:11:10.718Z,5.26
2023-03-03T17:13:49.251Z,5.33
2023-03-03T17:16:18.951Z,5.35
2023-03-03T17:19:17.806Z,5.28
2023-03-03T17:22:04.546Z,5.41
2023-03-03T17:24:49.485Z,5.22
2023-03-03T17:27:26.198Z,5.10
2023-03-03T17:30:05.303Z,5.06
2023-03-03T17:32:44.715Z,4.91
2023-03-03T17:35:21.526Z,4.95
2023-03-03T17:38:03.569Z,4.79
2023-03-03T17:40:36.378Z,4.74
2023-03-03T17:43:16.541Z,4.65
2023-03-03T17:45:45.390Z,4.58
2023-03-03T17:48:40.572Z,4.56
2023-03-03T17:51:45.056Z,4.38
2023-03-03T17:54:19.252Z,4.20
2023-03-03T17:57:16.353Z,4.25
2023-03-03T17:59:51.810Z,4.31
2023-03-03T18:02:36.777Z,4.17
2023-03-03T18:05:25.046Z,4.20
2023-03-03T18:08:34.533Z,4.24
2023-03-03T18:11:01.233Z,4.24
2023-03-03T18:13:39.965Z,4.17
2023-03-03T18:16:29.273Z,4.07
2023-03-03T18:19:17.777Z,3.81
2023-03-03T18:21:50.256Z,3.66
2023-03-03T18:24:27.832Z,3.68
2023-03-03T18:26:56.412Z,3.52
2023-03-03T18:29:28.289Z,3.48
2023-03-03T18:31:57.955Z,3.41
2023-03-03T18:34:29.824Z,3.37
2023-03-03T18:37:19.625Z,3.42
2023-03-03T18:39:48.729Z,3.30
2023-03-03T18:42:23.541Z,3.22
2023-03-03T18:44:50.336Z,3.24
2023-03-03T18:47:17.653Z,3.33
2023-03-03T18:49:53.659Z,3.31
2023-03-03T18:52:23.023Z,3.22
2023-03-03T18:55:02.692Z,2.88
2023-03-03T18:57:29.552Z,2.98
2023-03-03T19:00:08.761Z,3.08
2023-03-03T19:02:39.109Z,3.06
2023-03-03T19:05:12.156Z,3.03
2023-03-03T19:07:41.882Z,2.85
2023-03-03T19:10:47.602Z,2.84
2023-03-03T19:13:32.612Z,2.83
2023-03-03T19:16:01.437Z,2.75
2023-03-03T19:18:29.740Z,2.63
2023-03-03T19:21:20.889Z,2.59
2023-03-03T19:24:01.609Z,2.53
2023-03-03T19:26:32.167Z,2.57
2023-03-03T19:29:13.967Z,2.52
2023-03-03T19:32:10.539Z,2.47
2023-03-03T19:34:55.720Z,2.15
2023-03-03T19:37:53.805Z,2.19
2023-03-03T19:40:55.709Z,2.34
2023-03-03T19:44:00.911Z,2.37
2023-03-03T19:46:47.800Z,2.37
2023-03-03T19:49:26.581Z,2.53
2023-03-03T19:52:21.324Z,2.52
2023-03-03T19:55:08.230Z,2.38
2023-03-03T19:57:49.025Z,2.21
2023-03-03T20:00:27.890Z,2.08
2023-03-03T20:03:37.152Z,2.07
2023-03-03T20:06:18.730Z,1.97
2023-03-03T20:09:03.672Z,2.12
2023-03-03T20:11:52.113Z,1.89
2023-03-03T20:14:40.350Z,1.74
2023-03-03T20:17:37.080Z,1.87
2023-03-03T20:20:22.530Z,1.86
2023-03-03T20:23:11.813Z,1.81
2023-03-03T20:25:42.119Z,1.73
2023-03-03T20:28:16.910Z,1.57
2023-03-03T20:31:07.100Z,1.65
2023-03-03T20:33:55.964Z,1.59
2023-03-03T20:36:35.544Z,1.48
2023-03-03T20:39:07.717Z,1.38
2023-03-03T20:41:51.426Z,1.43
2023-03-03T21:11:27.666Z,0.83
2023-03-03T21:33:09.158Z,0.72
2023-03-03T21:35:57.574Z,0.86
2023-03-03T21:38:34.672Z,0.91
2023-03-03T21:41:02.000Z,0.84
2023-03-03T21:43:38.805Z,0.69
2023-03-03T21:46:05.996Z,0.64
2023-03-03T21:48:32.743Z,0.44
2023-03-03T21:50:59.479Z,0.54
2023-03-03T21:53:26.773Z,0.50
2023-03-03T21:55:54.062Z,0.60
2023-03-03T21:58:20.657Z,0.51
2023-03-03T22:00:47.440Z,0.56
2023-03-03T22:03:15.403Z,0.53
2023-03-03T22:05:42.171Z,0.62
2023-03-03T22:08:08.789Z,0.64
2023-03-03T22:10:35.505Z,0.54
2023-03-03T22:13:02.192Z,0.50
2023-03-03T22:15:33.420Z,0.46
2023-03-03T22:18:00.903Z,0.41
2023-03-03T22:20:27.630Z,0.42
2023-03-03T22:22:54.453Z,0.12
2023-03-03T22:25:21.114Z,0.24
2023-03-03T22:27:47.848Z,0.30
2023-03-03T22:30:15.834Z,0.30
2023-03-03T22:32:42.594Z,0.32
2023-03-03T22:35:09.816Z,0.37
2023-03-03T22:37:36.395Z,0.19
2023-03-03T22:40:03.542Z,0.00
2023-03-03T22:42:30.211Z,0.03
2023-03-03T22:44:56.810Z,0.15
2023-03-03T22:47:23.577Z,0.05
2023-03-03T22:49:50.238Z,0.13
2023-03-03T22:52:16.853Z,0.11
2023-03-03T22:54:43.657Z,0.06
2023-03-03T22:57:10.365Z,0.09
2023-03-03T22:59:36.976Z,0.10
2023-03-03T23:02:04.076Z,0.04
2023-03-03T23:04:33.036Z,0.10
2023-03-03T23:07:00.983Z,-0.22
2023-03-03T23:09:27.637Z,-0.06
2023-03-03T23:11:54.209Z,-0.09
2023-03-03T23:14:20.815Z,-0.07
2023-03-03T23:16:47.598Z,-0.01
2023-03-03T23:19:14.206Z,-0.04
2023-03-03T23:21:41.269Z,-0.11
2023-03-03T23:24:08.224Z,-0.17
2023-03-03T23:26:34.788Z,-0.16
2023-03-03T23:29:01.450Z,-0.12
2023-03-03T23:31:28.080Z,-0.02
2023-03-03T23:33:54.762Z,0.03
2023-03-03T23:36:21.366Z,-0.03
2023-03-03T23:38:48.062Z,-0.07
2023-03-03T23:41:14.669Z,0.00
2023-03-03T23:43:41.313Z,-0.01
2023-03-03T23:46:07.956Z,0.01
2023-03-03T23:48:34.580Z,-0.02
2023-03-03T23:51:02.756Z,-0.02
2023-03-03T23:53:29.442Z,-0.29
2023-03-03T23:55:56.069Z,-0.22
2023-03-03T23:58:22.666Z,-0.38
